Aeroporto :
LOGIN :

Iscrizione | Disclaimer

   EN    FR    IT 

 










Sommario :    VFR   VFR Marginale   IFR   IFR Intensivo   IFR Molto Intensivo
Visibilità : 
Base nubi : 
>= 8 km
>= 3000ft
5 / 8 km
1000 / 3000 ft
1500m / 5 km
500 / 1000 ft
800 / 1500m
200 / 500 ft
< 800m
< 200 ft
Simboli :   Temporali  Nebbia  Neve Forte  Precipitazioni Forti  Vento > 20 kt
SIGMETs :   Varie  Temporali  Ghiacco  Turbolenza  Onda orograficha  Ceneri Vulcaniche







- Altitudine del aeroporto : 157 ft
- Codice IATA : LIL
- Carte del aeroporto


LFQQ - Lille Lesquin

ULTIMO METAR :
  • 191400Z AUTO 33010KT 5000 -RA BR FEW046 BKN056 OVC072 13/11 Q1008 TEMPO 2000 RA BKN009 BKN030CB

METARs OBSOLETI :
  • 191330Z AUTO 32010KT 6000 -RA FEW032 OVC062 13/11 Q1008 TEMPO 2000 RA BKN009 BKN030CB
  • 191300Z AUTO 34010KT 9999 -RA BKN044/// BKN054/// OVC066/// ///TCU 14/11 Q1008 TEMPO 2000 RA BKN009 BKN030CB
  • 191230Z AUTO 34008KT 9999 FEW012/// BKN040/// OVC060/// ///TCU 14/11 Q1008 TEMPO 2000 RA BKN009 BKN030CB
  • 191200Z AUTO 35010KT 7000 FEW032/// BKN039/// BKN048/// ///TCU 14/12 Q1008 TEMPO 2000 RA BKN009 BKN030CB
  • 191130Z AUTO 35013KT 9000 FEW023 BKN042 BKN048 14/11 Q1008 TEMPO 2000 RA BKN009 BKN030CB

TAF TAF LFQQ
Valido dal 19 a 12 ore il 20 a 18 ore UTC


191100Z 1912/2018 34010KT 8000 BKN030
TEMPO 1912/1917 2000 RA BKN009 BKN030CB
BECMG 1918/1920 OVC008
TEMPO 1920/2009 2000 DZ BR OVC003
BECMG 2009/2012 BKN016
ATIS : +33 3 20 16 19 54
Nessun NOTAM noto per questo aeroporto.
2 SIGMETs conosciuti per la FIR Paris (LFFF) :
 
Temporali affogati
LFFF SIGMET 4 VALID 191400/191600 LFPW
LFFF PARIS FIR/UIR EMBD TS OBS WI N4830 E00430 - N4815 E00400 - N4815 E00300 - N4830 E00200 - N4845 E00215 - N4830 E00300 - N4830 E00345 - N4845 E00415 - N4830 E00430 TOP FL330 MOV S 10KT NC=
Temporali affogati
LFFF SIGMET 2 VALID 191200/191400 LFPW
LFFF PARIS FIR/UIR EMBD TS FCST WI N4845 E00130 - N4915 E00145 - N4845 E00400 - N4815 E00330 - N4845 E00130 TOP FL330 MOV S 10KT NC=



MetMap, La meteo Aeronautica in un colpo d'occhio ! - Copyright ORBIFLY Dicembre 2007 - Disclaimer

ORBIFLY MET'MAP TEAM :

Programmazione e sviluppo : Alexandra Zaïnal
Concezione e sviluppo : Baudouin d'Aumeries
Co-Programmazione e sviluppo : Marc-Olivier Méhu
Supporto tecnico e logistico : Manuel Goepfert
Aiuto per la traduzione : Arnaldo La Scala

Contatto : metmap@orbifly.com




FONTI E CREDITI :

   NOAA